Terminal Aerodrome Forecast
Issued by NWS

Home | Current Version | Previous Version | Text Only | Print | Product List | Glossary On
Versions: 1 2 3 4 5 6 7 8 9 10 11 12 13 14 15
086
FTUS41 KBTV 192339
TAFMPV
TAF
KMPV 192339Z 2000/2024 17007KT P6SM VCSH OVC025
     FM200600 VRB03KT P6SM -RA OVC015
     FM201000 VRB03KT 6SM -RA BR OVC020
     FM201300 15005KT 6SM -RA BR OVC020
     FM201600 16005KT 3SM -RA BR OVC015
     FM201800 17005KT P6SM VCSH OVC020=

USA.gov is the U.S. government's official web portal to all federal, state and local government web resources and services.